Time;durP1;ratioP1;P1;durP2;ratioP2;P2;SDS_P1;SDS_P2;PMS_P1;PMS_P2;Temp;Humidity;BMP_temperature;BMP_pressure;BME280_temperature;BME280_humidity;BME280_pressure;Samples;Min_cycle;Max_cycle;Signal;HPM_P1;HPM_P2
2022/01/14 00:02:03;;;;;;;10.47;4.43;;;7.00;99.90;;;;;;5052198;28;20203;-46
2022/01/14 00:04:30;;;;;;;13.70;4.70;;;6.90;99.90;;;;;;5046664;28;20210;-44
2022/01/14 00:06:58;;;;;;;10.23;4.43;;;7.00;99.90;;;;;;5047138;28;20218;-46
2022/01/14 00:09:24;;;;;;;15.00;4.57;;;6.90;99.90;;;;;;5034335;28;20191;-42
2022/01/14 00:11:56;;;;;;;21.17;5.03;;;6.90;99.90;;;;;;5053340;28;20195;-46
2022/01/14 00:14:38;;;;;;;13.87;4.70;;;6.90;99.90;;;;;;5041670;28;20218;-44
2022/01/14 00:17:06;;;;;;;19.07;4.83;;;6.90;99.90;;;;;;5054433;28;20214;-43
2022/01/14 00:19:34;;;;;;;10.83;4.17;;;6.90;99.90;;;;;;5053307;28;20227;-43
2022/01/14 00:22:06;;;;;;;14.63;4.17;;;6.90;99.90;;;;;;5043056;28;20203;-44
2022/01/14 00:32:54;;;;;;;13.97;5.80;;;6.90;99.90;;;;;;5051254;28;20237;-47
2022/01/14 00:35:21;;;;;;;12.47;5.07;;;6.80;99.90;;;;;;5042053;28;20305;-46
2022/01/14 00:37:48;;;;;;;10.83;5.30;;;6.80;99.90;;;;;;5045603;28;20599;-45
2022/01/14 00:40:15;;;;;;;15.53;5.53;;;6.80;99.90;;;;;;5040893;28;20206;-45
2022/01/14 00:42:42;;;;;;;15.40;6.33;;;6.80;99.90;;;;;;5047997;28;20556;-44
2022/01/14 00:45:11;;;;;;;12.07;4.90;;;6.80;99.90;;;;;;5042986;28;20226;-45
2022/01/14 00:47:39;;;;;;;23.03;5.77;;;6.80;99.90;;;;;;5044119;28;20199;-44
2022/01/14 00:50:08;;;;;;;17.50;5.50;;;6.80;99.90;;;;;;5040342;28;20234;-45
2022/01/14 00:52:36;;;;;;;12.17;5.27;;;6.70;99.90;;;;;;5042449;28;20397;-45
2022/01/14 00:55:03;;;;;;;16.07;5.37;;;6.70;99.90;;;;;;5033219;28;20320;-44
2022/01/14 01:00:14;;;;;;;10.23;4.30;;;6.70;99.90;;;;;;5052719;28;20761;-43
2022/01/14 01:02:41;;;;;;;12.93;5.83;;;6.70;99.90;;;;;;5058802;28;20203;-46
2022/01/14 01:05:09;;;;;;;16.43;4.80;;;6.70;99.90;;;;;;5054480;28;20226;-43
2022/01/14 01:07:37;;;;;;;12.87;4.77;;;6.70;99.90;;;;;;5043142;28;20985;-49
2022/01/14 01:10:04;;;;;;;13.77;5.13;;;6.60;99.90;;;;;;5034166;28;20671;-44
2022/01/14 01:12:36;;;;;;;13.50;4.57;;;6.60;99.90;;;;;;5054046;28;20183;-45
2022/01/14 01:15:07;;;;;;;14.90;4.93;;;6.60;99.90;;;;;;5044859;28;20223;-42
2022/01/14 01:17:36;;;;;;;15.77;5.10;;;6.60;99.90;;;;;;5058565;28;20191;-48
2022/01/14 01:20:11;;;;;;;16.60;6.17;;;6.60;99.90;;;;;;5061480;28;20209;-43
2022/01/14 01:22:38;;;;;;;12.83;4.73;;;6.60;99.90;;;;;;5043967;28;20260;-45
2022/01/14 01:25:14;;;;;;;18.53;5.47;;;6.60;99.90;;;;;;5035679;28;20226;-43
2022/01/14 01:27:43;;;;;;;11.60;4.90;;;6.60;99.90;;;;;;5048025;28;20771;-47
2022/01/14 01:30:15;;;;;;;12.73;5.60;;;6.60;99.90;;;;;;5047761;28;20687;-46
2022/01/14 01:32:47;;;;;;;13.67;4.93;;;6.60;99.90;;;;;;5046140;28;20191;-42
2022/01/14 01:35:15;;;;;;;12.60;4.77;;;6.60;99.90;;;;;;5036279;28;20226;-43
2022/01/14 01:37:42;;;;;;;23.10;6.57;;;6.60;99.90;;;;;;5049693;28;20206;-42
2022/01/14 01:40:10;;;;;;;11.03;5.37;;;6.60;99.90;;;;;;5041882;28;20195;-42
2022/01/14 01:42:41;;;;;;;12.30;5.60;;;6.60;99.90;;;;;;5050622;28;20963;-44
2022/01/14 01:45:11;;;;;;;9.63;5.80;;;6.60;99.90;;;;;;5046621;28;20211;-43
2022/01/14 01:47:38;;;;;;;15.97;5.57;;;6.60;99.90;;;;;;5046452;28;20199;-44
2022/01/14 01:50:11;;;;;;;15.13;5.00;;;6.60;99.90;;;;;;5043273;28;20655;-42
2022/01/14 01:52:38;;;;;;;12.93;6.30;;;6.60;99.90;;;;;;5046094;28;20290;-44
2022/01/14 01:55:06;;;;;;;20.33;5.60;;;6.60;99.90;;;;;;5036830;28;20246;-46
2022/01/14 01:57:34;;;;;;;21.83;5.40;;;6.60;99.90;;;;;;5050605;28;20205;-42
2022/01/14 02:00:01;;;;;;;15.07;5.23;;;6.60;99.90;;;;;;5051691;28;20215;-43
2022/01/14 02:02:29;;;;;;;7.87;4.57;;;6.60;99.90;;;;;;5043674;28;20206;-44
2022/01/14 02:04:56;;;;;;;13.60;5.03;;;6.60;99.90;;;;;;5043813;28;20226;-45
2022/01/14 02:07:23;;;;;;;9.93;4.60;;;6.60;99.90;;;;;;5037613;28;20943;-45
2022/01/14 02:09:50;;;;;;;11.50;4.63;;;6.60;99.90;;;;;;5050427;28;20195;-47
2022/01/14 02:12:19;;;;;;;11.53;4.17;;;6.60;99.90;;;;;;5039599;28;20214;-46
2022/01/14 02:15:10;;;;;;;13.10;4.23;;;6.60;99.90;;;;;;5054899;28;20224;-44
2022/01/14 02:17:52;;;;;;;13.13;3.50;;;6.60;99.90;;;;;;5041611;28;20309;-44
2022/01/14 02:23:07;;;;;;;9.67;4.17;;;6.60;99.90;;;;;;5043059;28;20719;-46
2022/01/14 02:25:36;;;;;;;10.83;3.93;;;6.70;99.90;;;;;;5041785;28;20207;-44
2022/01/14 02:28:06;;;;;;;8.87;3.87;;;6.60;99.90;;;;;;5031550;28;20211;-46
2022/01/14 02:30:35;;;;;;;11.07;3.43;;;6.70;99.90;;;;;;5057159;28;20198;-47
2022/01/14 02:33:02;;;;;;;9.23;4.10;;;6.70;99.90;;;;;;5048861;28;20209;-45
2022/01/14 02:35:30;;;;;;;9.17;4.20;;;6.70;99.90;;;;;;5038943;28;20526;-48
2022/01/14 02:37:57;;;;;;;13.10;3.70;;;6.70;99.90;;;;;;5041511;28;20680;-48
2022/01/14 02:40:25;;;;;;;16.17;4.00;;;6.70;99.90;;;;;;5050898;28;20900;-44
2022/01/14 02:42:54;;;;;;;11.20;3.60;;;6.70;99.90;;;;;;5055823;28;20204;-45
2022/01/14 02:45:22;;;;;;;14.03;4.70;;;6.70;99.90;;;;;;5037064;28;20221;-44
2022/01/14 02:47:49;;;;;;;9.77;4.40;;;6.70;99.90;;;;;;5052516;28;20270;-45
2022/01/14 02:50:20;;;;;;;14.60;3.70;;;6.70;99.90;;;;;;5039912;28;20203;-44
2022/01/14 02:52:57;;;;;;;9.47;3.37;;;6.70;99.90;;;;;;5043588;28;20241;-47
2022/01/14 02:55:29;;;;;;;13.00;3.47;;;6.70;99.90;;;;;;5039502;28;20255;-46
2022/01/14 02:57:58;;;;;;;10.47;3.53;;;6.70;99.90;;;;;;5043091;28;20260;-44
2022/01/14 03:00:31;;;;;;;9.80;3.90;;;6.70;99.90;;;;;;5043862;28;20911;-43
2022/01/14 03:03:00;;;;;;;8.13;3.77;;;6.70;99.90;;;;;;5039528;28;20928;-45
2022/01/14 03:05:29;;;;;;;9.27;3.77;;;6.70;99.90;;;;;;5044054;28;20222;-42
2022/01/14 03:07:59;;;;;;;12.90;4.23;;;6.70;99.90;;;;;;5037386;28;20203;-45
2022/01/14 03:10:25;;;;;;;8.20;3.47;;;6.70;99.90;;;;;;5053052;28;20195;-45
2022/01/14 03:12:52;;;;;;;14.33;3.97;;;6.70;99.90;;;;;;5052921;28;20197;-46
2022/01/14 03:15:20;;;;;;;14.03;3.57;;;6.70;99.90;;;;;;5037324;28;20218;-43
2022/01/14 03:17:47;;;;;;;12.87;4.27;;;6.70;99.90;;;;;;5052087;28;20194;-46
2022/01/14 03:20:36;;;;;;;10.73;3.40;;;6.70;99.90;;;;;;5042964;28;20215;-47
2022/01/14 03:23:06;;;;;;;12.77;3.33;;;6.70;99.90;;;;;;5037452;28;22586;-42
2022/01/14 03:25:47;;;;;;;5.17;2.53;;;6.70;99.90;;;;;;5043734;28;20241;-43
2022/01/14 03:28:15;;;;;;;10.50;3.20;;;6.80;99.90;;;;;;5055780;28;20280;-42
2022/01/14 03:30:42;;;;;;;13.37;3.20;;;6.80;99.90;;;;;;5036213;28;20296;-49
2022/01/14 03:33:09;;;;;;;8.77;2.97;;;6.80;99.90;;;;;;5049482;28;20200;-45
2022/01/14 03:35:36;;;;;;;9.30;3.53;;;6.80;99.90;;;;;;5043126;28;20257;-42
2022/01/14 03:38:04;;;;;;;10.47;3.50;;;6.80;99.90;;;;;;5043292;28;20206;-43
2022/01/14 03:40:31;;;;;;;7.10;3.30;;;6.80;99.90;;;;;;5045738;28;20582;-44
2022/01/14 03:42:58;;;;;;;11.23;3.37;;;6.80;99.90;;;;;;5043294;28;20199;-46
2022/01/14 03:45:24;;;;;;;13.20;3.33;;;6.80;99.90;;;;;;5039376;28;20219;-44
2022/01/14 03:47:51;;;;;;;10.57;3.07;;;6.80;99.90;;;;;;5049142;28;20198;-45
2022/01/14 03:50:18;;;;;;;8.50;3.10;;;6.80;99.90;;;;;;5056019;28;20187;-47
2022/01/14 03:52:45;;;;;;;11.17;3.57;;;6.80;99.90;;;;;;5040993;28;20195;-42
2022/01/14 03:55:13;;;;;;;14.07;3.50;;;6.80;99.90;;;;;;5047578;28;20246;-43
2022/01/14 03:57:40;;;;;;;9.47;3.10;;;6.90;99.90;;;;;;5053148;28;20200;-46
2022/01/14 04:00:08;;;;;;;9.97;4.07;;;6.80;99.90;;;;;;5053277;28;20226;-45
2022/01/14 04:02:43;;;;;;;10.57;3.83;;;6.80;99.90;;;;;;5038207;28;20217;-45
2022/01/14 04:05:11;;;;;;;10.53;3.60;;;6.90;99.90;;;;;;5049304;28;20242;-47
2022/01/14 04:07:37;;;;;;;9.20;3.30;;;6.90;99.90;;;;;;5043922;28;20656;-43
2022/01/14 04:10:10;;;;;;;10.37;4.03;;;6.90;99.90;;;;;;5044133;28;20195;-44
2022/01/14 04:12:48;;;;;;;10.13;3.63;;;6.80;99.90;;;;;;5043715;28;20222;-45
2022/01/14 04:18:01;;;;;;;10.90;3.90;;;6.90;99.90;;;;;;5046811;28;20191;-43
2022/01/14 04:20:29;;;;;;;11.07;4.93;;;6.90;99.90;;;;;;5050769;28;20211;-44
2022/01/14 04:22:56;;;;;;;14.97;4.23;;;6.90;99.90;;;;;;5049516;28;20887;-42
2022/01/14 04:25:23;;;;;;;16.03;4.10;;;6.90;99.90;;;;;;5046760;28;20221;-43
2022/01/14 04:27:52;;;;;;;10.17;3.57;;;6.90;99.90;;;;;;5042414;28;20191;-47
2022/01/14 04:30:19;;;;;;;8.67;3.50;;;6.90;99.90;;;;;;5052462;28;20210;-46
2022/01/14 04:32:46;;;;;;;13.33;3.43;;;6.90;99.90;;;;;;5036136;28;20200;-44
2022/01/14 04:35:14;;;;;;;11.43;4.30;;;6.90;99.90;;;;;;5051509;28;20222;-44
2022/01/14 04:37:41;;;;;;;12.50;4.30;;;6.90;99.90;;;;;;5042448;28;20199;-43
2022/01/14 04:40:09;;;;;;;12.30;4.10;;;6.90;99.90;;;;;;5043578;28;20229;-46
2022/01/14 04:42:37;;;;;;;9.37;3.63;;;6.90;99.90;;;;;;5044558;28;20195;-45
2022/01/14 04:45:07;;;;;;;10.90;3.90;;;6.90;99.90;;;;;;5044854;28;20452;-42
2022/01/14 04:47:44;;;;;;;11.37;3.80;;;6.90;99.90;;;;;;5037596;28;20207;-43
2022/01/14 04:50:12;;;;;;;13.70;4.07;;;6.90;99.90;;;;;;5051809;28;20199;-48
2022/01/14 04:52:40;;;;;;;14.57;3.50;;;7.00;99.90;;;;;;5049349;28;20584;-46
2022/01/14 04:55:08;;;;;;;14.40;3.97;;;6.90;99.90;;;;;;5043882;28;20474;-45
2022/01/14 04:57:35;;;;;;;12.00;4.00;;;6.90;99.90;;;;;;5040262;28;20203;-42
2022/01/14 05:00:05;;;;;;;12.00;3.80;;;6.90;99.90;;;;;;5044715;28;20277;-44
2022/01/14 05:02:31;;;;;;;11.10;3.97;;;6.90;99.90;;;;;;5044944;28;20207;-44
2022/01/14 05:04:59;;;;;;;11.27;3.70;;;6.90;99.90;;;;;;5044001;28;20257;-42
2022/01/14 05:07:26;;;;;;;10.83;3.57;;;6.90;99.90;;;;;;5044540;28;20206;-46
2022/01/14 05:10:08;;;;;;;11.10;3.03;;;6.90;99.90;;;;;;5047816;28;20187;-43
2022/01/14 05:12:38;;;;;;;9.80;3.53;;;6.90;99.90;;;;;;5047368;28;20285;-48
2022/01/14 05:15:07;;;;;;;12.63;4.07;;;6.90;99.90;;;;;;5042849;28;20296;-43
2022/01/14 05:17:34;;;;;;;9.60;3.37;;;6.90;99.90;;;;;;5039080;28;20556;-43
2022/01/14 05:20:01;;;;;;;9.03;3.30;;;6.90;99.90;;;;;;5051906;28;20244;-43
2022/01/14 05:22:28;;;;;;;11.77;3.70;;;6.90;99.90;;;;;;5047898;28;20206;-45
2022/01/14 05:24:56;;;;;;;8.30;3.20;;;6.90;99.90;;;;;;5040765;28;20215;-43
2022/01/14 05:27:22;;;;;;;13.20;3.67;;;6.90;99.90;;;;;;5043927;28;20249;-47
2022/01/14 05:29:50;;;;;;;19.13;3.20;;;6.90;99.90;;;;;;5049092;28;20200;-47
2022/01/14 05:32:20;;;;;;;18.10;3.60;;;6.90;99.90;;;;;;5047987;28;20659;-44
2022/01/14 05:34:48;;;;;;;9.13;2.90;;;6.90;99.90;;;;;;5037782;28;20293;-47
2022/01/14 05:37:15;;;;;;;13.10;2.77;;;6.80;99.90;;;;;;5055170;28;20225;-45
2022/01/14 05:39:42;;;;;;;12.80;3.80;;;6.80;99.90;;;;;;5060528;28;20675;-48
2022/01/14 05:42:11;;;;;;;12.20;3.30;;;6.80;99.90;;;;;;5056809;28;20199;-43
2022/01/14 05:44:38;;;;;;;18.47;3.40;;;6.80;99.90;;;;;;5044819;28;20211;-43
2022/01/14 05:47:06;;;;;;;8.77;3.07;;;6.80;99.90;;;;;;5038618;28;20202;-43
2022/01/14 05:49:34;;;;;;;13.27;3.20;;;6.80;99.90;;;;;;5033872;28;20204;-45
2022/01/14 05:52:01;;;;;;;13.33;3.07;;;6.70;99.90;;;;;;5051987;28;20198;-44
2022/01/14 05:54:28;;;;;;;12.00;4.00;;;6.70;99.90;;;;;;5043769;28;20235;-42
2022/01/14 05:56:56;;;;;;;12.73;3.60;;;6.70;99.90;;;;;;5039692;28;20222;-46
2022/01/14 05:59:23;;;;;;;13.57;3.07;;;6.70;99.90;;;;;;5045392;28;20725;-45
2022/01/14 06:01:49;;;;;;;7.57;2.93;;;6.70;99.90;;;;;;5046073;28;20218;-43
2022/01/14 06:04:16;;;;;;;16.97;3.83;;;6.60;99.90;;;;;;5038355;28;20223;-45
2022/01/14 06:06:44;;;;;;;12.40;3.07;;;6.60;99.90;;;;;;5048407;28;20592;-43
2022/01/14 06:09:11;;;;;;;14.70;3.20;;;6.60;99.90;;;;;;5042361;28;20221;-43
2022/01/14 06:11:38;;;;;;;10.07;3.17;;;6.60;99.90;;;;;;5044392;28;20648;-43
2022/01/14 06:14:05;;;;;;;9.73;3.20;;;6.60;99.90;;;;;;5035077;28;20233;-47
2022/01/14 06:16:32;;;;;;;16.23;3.40;;;6.60;99.90;;;;;;5039889;28;20690;-44
2022/01/14 06:18:59;;;;;;;17.03;4.17;;;6.60;99.90;;;;;;5043180;28;20218;-47
2022/01/14 06:21:26;;;;;;;14.83;3.47;;;6.60;99.90;;;;;;5035913;28;20215;-44
2022/01/14 06:23:54;;;;;;;14.10;3.53;;;6.50;99.90;;;;;;5043557;28;20214;-48
2022/01/14 06:26:20;;;;;;;13.20;3.33;;;6.50;99.90;;;;;;5051788;28;20223;-43
2022/01/14 06:28:47;;;;;;;14.77;2.83;;;6.60;99.90;;;;;;5038797;28;20222;-44
2022/01/14 06:31:14;;;;;;;15.30;3.50;;;6.50;99.90;;;;;;5036064;28;20207;-44
2022/01/14 06:33:42;;;;;;;11.83;3.47;;;6.60;99.90;;;;;;5045720;28;20626;-44
2022/01/14 06:36:09;;;;;;;18.50;4.10;;;6.50;99.90;;;;;;5033380;28;20875;-45
2022/01/14 06:38:36;;;;;;;7.87;3.00;;;6.50;99.90;;;;;;5047183;28;20560;-46
2022/01/14 06:41:04;;;;;;;11.70;3.13;;;6.50;99.90;;;;;;5041368;28;20223;-45
2022/01/14 06:43:31;;;;;;;7.40;2.73;;;6.50;99.90;;;;;;5046588;28;20695;-42
2022/01/14 06:45:59;;;;;;;8.23;3.10;;;6.50;99.90;;;;;;5047149;28;20260;-42
2022/01/14 06:48:26;;;;;;;10.77;2.77;;;6.50;99.90;;;;;;5051111;28;20199;-42
2022/01/14 06:50:54;;;;;;;15.73;3.70;;;6.50;99.90;;;;;;5040193;28;20208;-44
2022/01/14 06:53:21;;;;;;;9.53;2.90;;;6.50;99.90;;;;;;5045197;28;20285;-42
2022/01/14 06:55:48;;;;;;;12.53;3.00;;;6.50;99.90;;;;;;5048046;28;20235;-42
2022/01/14 06:58:16;;;;;;;12.27;3.37;;;6.50;99.90;;;;;;5054324;28;20210;-46
2022/01/14 07:00:43;;;;;;;17.10;2.97;;;6.50;99.90;;;;;;5043415;28;20977;-44
2022/01/14 07:03:10;;;;;;;17.57;3.50;;;6.50;99.90;;;;;;5048005;28;20218;-44
2022/01/14 07:05:37;;;;;;;7.13;3.13;;;6.50;99.90;;;;;;5037923;28;20928;-44
2022/01/14 07:08:04;;;;;;;13.93;3.17;;;6.50;99.90;;;;;;5048653;28;20202;-43
2022/01/14 07:10:35;;;;;;;19.20;4.17;;;6.50;99.90;;;;;;5051463;28;20195;-44
2022/01/14 07:13:03;;;;;;;17.10;3.23;;;6.50;99.90;;;;;;5053022;28;20285;-44
2022/01/14 07:15:31;;;;;;;15.47;3.63;;;6.60;99.90;;;;;;5045331;28;20718;-45
2022/01/14 07:17:58;;;;;;;12.67;3.63;;;6.60;99.90;;;;;;5050712;28;20659;-43
2022/01/14 07:20:25;;;;;;;16.27;3.40;;;6.60;99.90;;;;;;5045833;28;20233;-45
2022/01/14 07:22:52;;;;;;;11.60;2.93;;;6.60;99.90;;;;;;5046058;28;20211;-44
2022/01/14 07:25:19;;;;;;;15.77;3.90;;;6.60;99.90;;;;;;5052965;28;20215;-42
2022/01/14 07:27:46;;;;;;;11.37;3.57;;;6.60;99.90;;;;;;5050079;28;20213;-43
2022/01/14 07:30:14;;;;;;;20.63;4.00;;;6.60;99.90;;;;;;5056306;28;20209;-45
2022/01/14 07:32:43;;;;;;;14.00;3.63;;;6.60;99.90;;;;;;5046271;28;23024;-42
2022/01/14 07:35:11;;;;;;;13.20;3.33;;;6.60;99.90;;;;;;5054982;28;20215;-43
2022/01/14 07:37:38;;;;;;;11.00;3.33;;;6.60;99.90;;;;;;5037234;28;20211;-42
2022/01/14 07:40:06;;;;;;;12.83;3.53;;;6.60;99.90;;;;;;5050944;28;20268;-43
2022/01/14 07:42:34;;;;;;;14.97;3.90;;;6.60;99.90;;;;;;5056740;28;20199;-47
2022/01/14 07:45:02;;;;;;;15.83;4.07;;;6.60;99.90;;;;;;5051376;28;20218;-46
2022/01/14 07:47:29;;;;;;;13.27;3.47;;;6.60;99.90;;;;;;5048906;28;20274;-43
2022/01/14 07:49:58;;;;;;;16.63;3.43;;;6.60;99.90;;;;;;5051802;28;20207;-43
2022/01/14 07:52:24;;;;;;;16.10;3.77;;;6.60;99.90;;;;;;5041178;28;20222;-44
2022/01/14 07:54:51;;;;;;;12.40;3.37;;;6.70;99.90;;;;;;5043769;28;20227;-44
2022/01/14 07:57:18;;;;;;;13.50;3.03;;;6.60;99.90;;;;;;5046583;28;20210;-43
2022/01/14 07:59:45;;;;;;;14.67;3.80;;;6.60;99.90;;;;;;5051403;28;20215;-46
2022/01/14 08:02:13;;;;;;;11.33;3.43;;;6.60;99.90;;;;;;5043266;28;20203;-42
2022/01/14 08:04:41;;;;;;;11.50;3.00;;;6.70;99.90;;;;;;5042699;28;20216;-42
2022/01/14 08:07:09;;;;;;;8.63;2.83;;;6.70;99.90;;;;;;5056301;28;20654;-44
2022/01/14 08:09:36;;;;;;;14.10;3.10;;;6.70;99.90;;;;;;5035252;28;20565;-43
2022/01/14 08:12:05;;;;;;;12.43;3.07;;;6.70;99.90;;;;;;5051888;28;20202;-45
2022/01/14 08:14:34;;;;;;;10.83;2.77;;;6.70;99.90;;;;;;5040808;28;20284;-43
2022/01/14 08:17:01;;;;;;;12.03;2.67;;;6.70;99.90;;;;;;5051350;28;20207;-42
2022/01/14 08:19:32;;;;;;;13.33;3.80;;;6.70;99.90;;;;;;5048171;28;20402;-43
2022/01/14 08:22:00;;;;;;;12.07;3.30;;;6.70;99.90;;;;;;5050137;28;20210;-43
2022/01/14 08:24:29;;;;;;;14.77;4.27;;;6.70;99.90;;;;;;5040358;28;20222;-42
2022/01/14 08:26:55;;;;;;;18.93;3.10;;;6.70;99.90;;;;;;5047676;28;20195;-43
2022/01/14 08:29:23;;;;;;;15.70;3.53;;;6.70;99.90;;;;;;5045826;28;20212;-46
2022/01/14 08:31:49;;;;;;;12.23;3.37;;;6.70;99.90;;;;;;5047335;28;20199;-45
2022/01/14 08:34:17;;;;;;;15.57;3.77;;;6.70;99.90;;;;;;5044597;28;20219;-42
2022/01/14 08:36:47;;;;;;;9.93;3.80;;;6.70;99.90;;;;;;5049778;28;20212;-43
2022/01/14 08:39:13;;;;;;;15.03;3.50;;;6.70;99.90;;;;;;5045113;28;20412;-43
2022/01/14 08:41:42;;;;;;;14.30;3.10;;;6.70;99.90;;;;;;5035620;28;20234;-44
2022/01/14 08:44:08;;;;;;;14.60;3.10;;;6.70;99.90;;;;;;5046496;28;20226;-47
2022/01/14 08:46:35;;;;;;;15.13;3.23;;;6.70;99.90;;;;;;5043639;28;20207;-42
2022/01/14 08:49:03;;;;;;;13.43;2.90;;;6.70;99.90;;;;;;5054613;28;20206;-43
2022/01/14 08:51:29;;;;;;;14.57;3.73;;;6.70;99.90;;;;;;5047303;28;20195;-45
2022/01/14 08:53:57;;;;;;;10.00;3.60;;;6.70;99.90;;;;;;5053730;28;20214;-43
2022/01/14 08:56:24;;;;;;;11.63;3.20;;;6.70;99.90;;;;;;5037299;28;20290;-42
2022/01/14 08:58:52;;;;;;;15.33;3.40;;;6.70;99.90;;;;;;5045639;28;21664;-45
2022/01/14 09:01:19;;;;;;;16.37;3.70;;;6.70;99.90;;;;;;5045951;28;20277;-43
2022/01/14 09:03:46;;;;;;;19.37;3.90;;;6.70;99.90;;;;;;5045166;28;20215;-42
2022/01/14 09:06:13;;;;;;;13.50;3.33;;;6.70;99.90;;;;;;5044646;28;20660;-42
2022/01/14 09:08:40;;;;;;;14.60;3.87;;;6.60;99.90;;;;;;5051335;28;20195;-43
2022/01/14 09:11:07;;;;;;;22.17;4.60;;;6.60;99.90;;;;;;5054247;28;20195;-42
2022/01/14 09:13:34;;;;;;;10.90;4.17;;;6.60;99.90;;;;;;5042786;28;20210;-42
2022/01/14 09:16:02;;;;;;;15.40;3.87;;;6.60;99.90;;;;;;5050704;28;20663;-42
2022/01/14 09:18:29;;;;;;;17.90;3.40;;;6.60;99.90;;;;;;5048467;28;20281;-42
2022/01/14 09:20:58;;;;;;;16.93;4.83;;;6.60;99.90;;;;;;5050485;28;20297;-43
2022/01/14 09:23:25;;;;;;;17.37;5.20;;;6.60;99.90;;;;;;5051853;28;20221;-44
2022/01/14 09:25:52;;;;;;;13.50;3.53;;;6.60;99.90;;;;;;5055452;28;20194;-44
2022/01/14 09:28:19;;;;;;;16.90;4.77;;;6.60;99.90;;;;;;5036647;28;20218;-44
2022/01/14 09:30:46;;;;;;;11.33;4.37;;;6.60;99.90;;;;;;5047087;28;20195;-45
2022/01/14 09:33:16;;;;;;;15.87;4.63;;;6.60;99.90;;;;;;5043130;28;20195;-44
2022/01/14 09:35:43;;;;;;;14.87;4.73;;;6.60;99.90;;;;;;5049631;28;20241;-44
2022/01/14 09:38:09;;;;;;;14.37;3.43;;;6.60;99.90;;;;;;5047619;28;20203;-41
2022/01/14 09:40:37;;;;;;;13.40;4.00;;;6.60;99.90;;;;;;5042731;28;20968;-43
2022/01/14 09:43:04;;;;;;;11.33;4.27;;;6.60;99.90;;;;;;5052697;28;20202;-42
2022/01/14 09:45:30;;;;;;;13.60;3.67;;;6.60;99.90;;;;;;5036289;28;21080;-41
2022/01/14 09:47:57;;;;;;;16.50;4.10;;;6.70;99.90;;;;;;5044708;28;20672;-42
2022/01/14 09:50:26;;;;;;;10.97;4.10;;;6.70;99.90;;;;;;5045174;28;20199;-41
2022/01/14 09:52:54;;;;;;;19.40;4.73;;;6.70;99.90;;;;;;5048742;28;20214;-40
2022/01/14 09:55:22;;;;;;;10.03;3.50;;;6.70;99.90;;;;;;5051124;28;20701;-40
2022/01/14 09:57:49;;;;;;;13.70;4.03;;;6.70;99.90;;;;;;5054956;28;20199;-42
2022/01/14 10:00:17;;;;;;;21.60;4.50;;;6.70;99.90;;;;;;5040338;28;20222;-41
2022/01/14 10:02:44;;;;;;;21.70;4.47;;;6.70;99.90;;;;;;5049796;28;20286;-43
2022/01/14 10:05:33;;;;;;;16.80;4.90;;;6.70;99.90;;;;;;5052082;28;20218;-41
2022/01/14 10:08:17;;;;;;;14.73;4.90;;;6.80;99.90;;;;;;5051825;28;20207;-41
2022/01/14 10:10:47;;;;;;;22.33;4.80;;;6.80;99.90;;;;;;5042801;28;20244;-41
2022/01/14 10:13:15;;;;;;;9.50;4.03;;;6.70;99.90;;;;;;5050164;28;20531;-41
2022/01/14 10:15:47;;;;;;;20.33;5.73;;;6.80;99.90;;;;;;5032483;28;20247;-41
2022/01/14 10:18:17;;;;;;;14.67;4.90;;;6.80;99.90;;;;;;5049742;28;20252;-42
2022/01/14 10:20:45;;;;;;;19.70;4.80;;;6.80;99.90;;;;;;5048364;28;20215;-42
2022/01/14 10:23:13;;;;;;;12.77;6.00;;;6.80;99.90;;;;;;5049726;28;20226;-41
2022/01/14 10:25:41;;;;;;;12.17;4.60;;;6.80;99.90;;;;;;5042465;28;20242;-44
2022/01/14 10:28:18;;;;;;;14.57;4.63;;;6.80;99.90;;;;;;5042004;28;20225;-41
2022/01/14 10:30:48;;;;;;;14.97;4.00;;;6.90;99.90;;;;;;5056344;28;20190;-40
2022/01/14 10:33:18;;;;;;;16.90;4.70;;;6.90;99.90;;;;;;5038930;28;20667;-41
2022/01/14 10:35:47;;;;;;;7.87;3.70;;;6.90;99.90;;;;;;5039994;28;20781;-40
2022/01/14 10:38:15;;;;;;;10.30;3.73;;;6.90;99.90;;;;;;5048197;28;20199;-43
2022/01/14 10:40:44;;;;;;;15.33;3.90;;;6.90;99.90;;;;;;5044104;28;20186;-41
2022/01/14 10:43:15;;;;;;;11.00;3.70;;;6.90;99.90;;;;;;5052566;28;20205;-43
2022/01/14 10:45:43;;;;;;;7.73;3.60;;;6.90;99.90;;;;;;5047460;28;20934;-44
2022/01/14 10:48:12;;;;;;;10.20;3.43;;;6.90;99.90;;;;;;5044595;28;20250;-41
2022/01/14 10:50:41;;;;;;;6.50;3.50;;;6.90;99.90;;;;;;5051324;28;20210;-40
2022/01/14 10:53:11;;;;;;;11.27;4.10;;;6.90;99.90;;;;;;5056820;28;20203;-41
2022/01/14 10:55:40;;;;;;;12.33;3.90;;;7.00;99.90;;;;;;5043834;28;20551;-43
2022/01/14 10:58:13;;;;;;;11.23;3.27;;;7.00;99.90;;;;;;5052651;28;20555;-42
2022/01/14 11:00:41;;;;;;;6.37;2.83;;;7.00;99.90;;;;;;5045565;28;21435;-42
2022/01/14 11:03:08;;;;;;;9.20;3.83;;;7.00;99.90;;;;;;5047042;28;20213;-40
2022/01/14 11:05:35;;;;;;;8.57;2.80;;;7.00;99.90;;;;;;5051320;28;20230;-41
2022/01/14 11:08:03;;;;;;;6.30;2.60;;;7.00;99.90;;;;;;5053077;28;20291;-44
2022/01/14 11:10:33;;;;;;;12.00;2.80;;;7.00;99.90;;;;;;5041229;28;20203;-40
2022/01/14 11:13:02;;;;;;;6.93;2.57;;;7.00;99.90;;;;;;5048968;28;20201;-43
2022/01/14 11:15:30;;;;;;;7.53;2.30;;;7.00;99.90;;;;;;5055222;28;20229;-40
2022/01/14 11:18:00;;;;;;;7.53;3.10;;;7.00;99.90;;;;;;5044155;28;20207;-46
2022/01/14 11:20:31;;;;;;;7.67;2.43;;;7.00;99.90;;;;;;5052065;28;20199;-41
2022/01/14 11:23:16;;;;;;;6.03;2.13;;;7.00;99.90;;;;;;5055636;28;20223;-43
2022/01/14 11:25:47;;;;;;;9.07;2.70;;;7.00;99.90;;;;;;5047397;28;20245;-42
2022/01/14 11:28:18;;;;;;;7.37;2.53;;;7.00;99.90;;;;;;5054996;28;20210;-41
2022/01/14 11:30:45;;;;;;;2.93;2.60;;;7.00;99.90;;;;;;5054929;28;20306;-43
2022/01/14 11:33:14;;;;;;;4.20;2.30;;;7.10;99.90;;;;;;5049738;28;20206;-41
2022/01/14 11:35:41;;;;;;;4.43;2.40;;;7.10;99.90;;;;;;5038493;28;20371;-43
2022/01/14 11:38:40;;;;;;;7.97;1.97;;;7.10;99.90;;;;;;5049508;28;20294;-41
2022/01/14 11:41:10;;;;;;;5.03;2.30;;;7.10;99.90;;;;;;4981299;28;20580;-41
2022/01/14 11:43:42;;;;;;;6.10;2.13;;;7.10;99.90;;;;;;5032434;28;20803;-41
2022/01/14 11:46:11;;;;;;;3.17;2.00;;;7.10;99.90;;;;;;5050617;28;20704;-41
2022/01/14 11:48:42;;;;;;;6.83;2.13;;;7.10;99.90;;;;;;5042418;28;20199;-45
2022/01/14 11:51:10;;;;;;;5.33;2.60;;;7.20;99.90;;;;;;5041222;28;20292;-40
2022/01/14 11:53:55;;;;;;;4.87;2.10;;;7.20;99.90;;;;;;5051499;28;20854;-41
2022/01/14 11:56:49;;;;;;;4.30;2.30;;;7.20;99.90;;;;;;5042865;28;20199;-41
2022/01/14 11:59:45;;;;;;;4.23;2.27;;;7.20;99.90;;;;;;5052292;28;20211;-40
2022/01/14 12:02:32;;;;;;;4.47;2.10;;;7.20;99.90;;;;;;5055719;28;20407;-41
2022/01/14 12:05:24;;;;;;;2.67;1.97;;;7.20;99.90;;;;;;5042794;28;20227;-44
2022/01/14 12:08:21;;;;;;;3.23;1.80;;;7.20;99.90;;;;;;5038148;28;20222;-42
2022/01/14 12:11:11;;;;;;;5.63;2.10;;;7.30;99.90;;;;;;5052445;28;20956;-40
2022/01/14 12:13:53;;;;;;;6.33;2.10;;;7.20;99.90;;;;;;5037752;28;20215;-41
2022/01/14 12:19:11;;;;;;;3.27;2.53;;;7.30;99.90;;;;;;5052902;28;20269;-42
2022/01/14 12:21:58;;;;;;;5.13;2.40;;;7.30;99.90;;;;;;5045090;28;20230;-46
2022/01/14 12:24:49;;;;;;;6.30;2.67;;;7.30;99.90;;;;;;5047819;28;20255;-41
2022/01/14 12:27:45;;;;;;;5.10;2.63;;;7.40;99.90;;;;;;5058498;28;20252;-41
2022/01/14 12:30:28;;;;;;;6.90;2.53;;;7.30;99.90;;;;;;5054618;28;20212;-44
2022/01/14 12:32:56;;;;;;;3.70;2.20;;;7.40;99.90;;;;;;5038875;28;20207;-40
2022/01/14 12:35:35;;;;;;;7.33;2.60;;;7.40;99.90;;;;;;5044153;28;20574;-43
2022/01/14 12:38:02;;;;;;;5.17;2.60;;;7.40;99.90;;;;;;5033082;28;20198;-42
2022/01/14 12:40:36;;;;;;;2.80;2.30;;;7.40;99.90;;;;;;5055201;28;20199;-41
2022/01/14 12:43:05;;;;;;;3.17;2.57;;;7.40;99.90;;;;;;5049768;28;20215;-43
2022/01/14 12:45:41;;;;;;;3.70;3.00;;;7.50;99.90;;;;;;5048310;28;20556;-41
2022/01/14 12:48:28;;;;;;;5.13;2.70;;;7.50;99.90;;;;;;5043270;28;20195;-43
2022/01/14 12:51:04;;;;;;;6.60;2.60;;;7.50;99.90;;;;;;5040377;28;20227;-40
2022/01/14 12:53:30;;;;;;;5.83;2.67;;;7.50;99.90;;;;;;5055511;28;20387;-43
2022/01/14 12:56:00;;;;;;;3.20;2.90;;;7.60;99.90;;;;;;5040110;28;20211;-40
2022/01/14 12:58:27;;;;;;;5.07;2.77;;;7.60;99.90;;;;;;5055398;28;20221;-44
2022/01/14 13:01:07;;;;;;;7.27;3.13;;;7.60;99.90;;;;;;5050124;28;20214;-40
2022/01/14 13:03:35;;;;;;;6.40;2.73;;;7.60;99.90;;;;;;5048355;28;20230;-41
2022/01/14 13:06:02;;;;;;;5.40;2.87;;;7.60;99.90;;;;;;5041158;28;20195;-40
2022/01/14 13:08:29;;;;;;;8.17;3.70;;;7.70;99.90;;;;;;5037418;28;20214;-41
2022/01/14 13:11:03;;;;;;;6.50;3.07;;;7.70;99.90;;;;;;5047602;28;20264;-43
2022/01/14 13:13:29;;;;;;;5.77;3.30;;;7.70;99.90;;;;;;5049970;28;20568;-44
2022/01/14 13:16:04;;;;;;;6.73;2.90;;;7.80;99.90;;;;;;5041968;28;20210;-40
2022/01/14 13:18:37;;;;;;;11.67;3.67;;;7.80;99.90;;;;;;5045779;28;20191;-41
2022/01/14 13:21:05;;;;;;;5.80;2.90;;;7.80;99.90;;;;;;5042692;28;20206;-45
2022/01/14 13:23:33;;;;;;;7.00;2.93;;;7.80;99.90;;;;;;5036947;28;20233;-40